Time;durP1;ratioP1;P1;durP2;ratioP2;P2;SDS_P1;SDS_P2;PMS_P1;PMS_P2;Temp;Humidity;BMP_temperature;BMP_pressure;BME280_temperature;BME280_humidity;BME280_pressure;Samples;Min_cycle;Max_cycle;Signal;HPM_P1;HPM_P2
2023/06/01 00:01:41;;;;;;;4.47;2.30;;;16.90;72.00;;;;;;4984490;28;20190;-71
2023/06/01 00:04:09;;;;;;;5.33;2.60;;;16.80;73.50;;;;;;4984970;28;20680;-71
2023/06/01 00:06:35;;;;;;;5.00;2.53;;;16.70;75.20;;;;;;4983322;28;20464;-69
2023/06/01 00:09:02;;;;;;;6.47;3.87;;;16.70;77.10;;;;;;4983554;28;20451;-71
2023/06/01 00:11:28;;;;;;;5.20;2.70;;;16.60;78.90;;;;;;4982689;28;20435;-70
2023/06/01 00:13:54;;;;;;;4.93;2.90;;;16.70;80.30;;;;;;4986991;28;20441;-70
2023/06/01 00:16:19;;;;;;;5.13;3.40;;;16.70;81.60;;;;;;4987353;28;20212;-71
2023/06/01 00:18:45;;;;;;;4.20;2.60;;;16.60;81.60;;;;;;4987795;28;20443;-73
2023/06/01 00:21:11;;;;;;;4.73;3.80;;;16.60;82.70;;;;;;4981934;28;20808;-70
2023/06/01 00:23:40;;;;;;;4.90;2.80;;;16.70;84.70;;;;;;4983165;28;20283;-71
2023/06/01 00:26:07;;;;;;;4.27;3.00;;;16.70;84.70;;;;;;4982409;28;20216;-72
2023/06/01 00:28:32;;;;;;;3.97;2.10;;;16.70;85.70;;;;;;4979812;28;20429;-70
2023/06/01 00:30:58;;;;;;;3.90;2.70;;;16.60;86.50;;;;;;4980484;28;20496;-70
2023/06/01 00:33:24;;;;;;;4.53;3.00;;;16.60;88.10;;;;;;4981727;28;20209;-71
2023/06/01 00:35:50;;;;;;;3.40;2.40;;;16.60;89.40;;;;;;4981273;28;20186;-71
2023/06/01 00:38:16;;;;;;;3.60;2.87;;;16.50;90.40;;;;;;4982287;28;20172;-71
2023/06/01 00:40:43;;;;;;;4.80;2.70;;;16.50;91.10;;;;;;4985996;28;20450;-70
2023/06/01 00:43:09;;;;;;;2.73;2.00;;;16.40;91.60;;;;;;4980912;28;20243;-70
2023/06/01 00:45:35;;;;;;;3.93;2.80;;;16.30;92.30;;;;;;4982639;28;20432;-71
2023/06/01 00:48:01;;;;;;;4.77;3.10;;;16.20;92.90;;;;;;4981557;28;20470;-70
2023/06/01 00:50:26;;;;;;;6.07;3.10;;;16.20;93.60;;;;;;4981015;28;20458;-72
2023/06/01 00:52:53;;;;;;;6.63;3.53;;;16.20;94.10;;;;;;4983966;28;20432;-71
2023/06/01 00:55:20;;;;;;;7.83;2.97;;;16.10;94.50;;;;;;4981591;28;20181;-70
2023/06/01 00:57:48;;;;;;;6.97;2.90;;;16.10;95.00;;;;;;4980928;28;20763;-69
2023/06/01 01:00:14;;;;;;;4.93;2.50;;;16.10;95.20;;;;;;4980406;28;20459;-70
2023/06/01 01:02:41;;;;;;;2.80;2.30;;;16.10;95.50;;;;;;4979738;28;20422;-70
2023/06/01 01:05:09;;;;;;;5.27;2.47;;;16.00;95.80;;;;;;4979929;28;20216;-71
2023/06/01 01:07:41;;;;;;;3.30;2.73;;;16.00;96.30;;;;;;4980885;28;20894;-71
2023/06/01 01:10:22;;;;;;;5.10;2.57;;;16.00;96.70;;;;;;4957769;29;20536;-70
2023/06/01 01:12:57;;;;;;;4.27;2.80;;;15.90;97.10;;;;;;4940272;29;20420;-72
2023/06/01 01:15:47;;;;;;;5.90;2.57;;;15.80;97.70;;;;;;4945014;29;20922;-71
2023/06/01 01:18:19;;;;;;;5.40;3.17;;;15.80;98.10;;;;;;4971897;28;20424;-71
2023/06/01 01:20:57;;;;;;;5.30;3.10;;;15.80;98.80;;;;;;4940651;28;20445;-72
2023/06/01 01:23:30;;;;;;;3.60;2.50;;;15.80;99.20;;;;;;4927478;28;20998;-71
2023/06/01 01:26:22;;;;;;;4.43;3.00;;;15.70;99.20;;;;;;4962594;28;20466;-71
2023/06/01 01:29:05;;;;;;;6.57;3.10;;;15.70;99.40;;;;;;4945730;28;20484;-70
2023/06/01 01:31:33;;;;;;;6.87;3.97;;;15.70;99.90;;;;;;4939325;29;20778;-70
2023/06/01 01:34:01;;;;;;;5.43;3.40;;;15.60;99.90;;;;;;4925057;29;20721;-69
2023/06/01 01:36:28;;;;;;;3.40;2.87;;;15.60;99.90;;;;;;4936878;29;20449;-72
2023/06/01 01:38:54;;;;;;;4.83;2.63;;;15.60;99.90;;;;;;4935992;28;20439;-72
2023/06/01 01:41:21;;;;;;;4.60;2.73;;;15.50;99.90;;;;;;4960120;28;20522;-70
2023/06/01 01:43:48;;;;;;;10.13;3.83;;;15.50;99.90;;;;;;4946951;28;20232;-69
2023/06/01 01:46:47;;;;;;;5.70;2.90;;;15.40;99.90;;;;;;4937094;29;20465;-69
2023/06/01 01:49:25;;;;;;;5.10;2.80;;;15.40;99.90;;;;;;4960515;28;20454;-71
2023/06/01 01:52:06;;;;;;;3.63;2.90;;;15.30;99.90;;;;;;4979384;28;20420;-70
2023/06/01 01:54:36;;;;;;;4.33;3.20;;;15.20;99.90;;;;;;4978384;28;20479;-71
2023/06/01 01:57:03;;;;;;;5.20;2.93;;;15.20;99.90;;;;;;4978792;28;20463;-71
2023/06/01 01:59:29;;;;;;;5.00;3.40;;;15.20;99.90;;;;;;4966168;28;20448;-71
2023/06/01 02:01:55;;;;;;;5.50;3.30;;;15.10;99.90;;;;;;4978058;28;20835;-72
2023/06/01 02:04:21;;;;;;;6.10;3.23;;;15.10;99.90;;;;;;4978441;28;20466;-71
2023/06/01 02:06:47;;;;;;;4.63;3.03;;;15.10;99.90;;;;;;4979365;28;20459;-71
2023/06/01 02:09:13;;;;;;;7.43;3.53;;;15.10;99.90;;;;;;4994507;28;20200;-71
2023/06/01 02:11:38;;;;;;;6.10;3.20;;;15.10;99.90;;;;;;4979952;28;20677;-72
2023/06/01 02:14:04;;;;;;;5.90;3.20;;;15.00;99.90;;;;;;4979832;28;20180;-70
2023/06/01 02:16:30;;;;;;;5.40;3.43;;;15.00;99.90;;;;;;4988750;28;20189;-71
2023/06/01 02:18:57;;;;;;;7.17;3.50;;;14.90;99.90;;;;;;4987508;28;20224;-72
2023/06/01 02:21:24;;;;;;;4.40;3.20;;;14.90;99.90;;;;;;4978468;28;20319;-71
2023/06/01 02:23:49;;;;;;;4.97;3.70;;;14.90;99.90;;;;;;4978688;28;20474;-70
2023/06/01 02:26:16;;;;;;;4.90;3.27;;;14.80;99.90;;;;;;4982875;28;20488;-69
2023/06/01 02:28:42;;;;;;;7.00;4.17;;;14.80;99.90;;;;;;4979062;28;20503;-70
2023/06/01 02:31:09;;;;;;;7.37;3.40;;;14.70;99.90;;;;;;4979311;28;20482;-70
2023/06/01 02:33:35;;;;;;;4.00;3.03;;;14.70;99.90;;;;;;4980787;28;20427;-70
2023/06/01 02:36:01;;;;;;;4.83;2.63;;;14.70;99.90;;;;;;4980933;28;20408;-71
2023/06/01 02:38:27;;;;;;;7.57;3.67;;;14.70;99.90;;;;;;4977746;28;20254;-70
2023/06/01 02:40:53;;;;;;;4.50;3.30;;;14.60;99.90;;;;;;4962635;28;20416;-72
2023/06/01 02:43:19;;;;;;;6.70;3.47;;;14.60;99.90;;;;;;4968699;28;20201;-71
2023/06/01 02:45:45;;;;;;;4.13;2.97;;;14.50;99.90;;;;;;4967913;28;20185;-72
2023/06/01 02:48:10;;;;;;;6.63;3.40;;;14.50;99.90;;;;;;4971589;28;20522;-70
2023/06/01 02:50:36;;;;;;;6.20;3.63;;;14.40;99.90;;;;;;4978121;28;20231;-69
2023/06/01 02:53:02;;;;;;;6.73;3.43;;;14.40;99.90;;;;;;4977369;28;20294;-75
2023/06/01 02:55:28;;;;;;;5.53;3.47;;;14.30;99.90;;;;;;4977989;28;20424;-72
2023/06/01 02:58:22;;;;;;;7.53;3.90;;;14.40;99.90;;;;;;4978561;28;20192;-70
2023/06/01 03:00:59;;;;;;;6.40;3.20;;;14.40;99.90;;;;;;4977057;28;20886;-69
2023/06/01 03:03:26;;;;;;;5.93;3.50;;;14.30;99.90;;;;;;4978729;28;20439;-70
2023/06/01 03:05:53;;;;;;;3.73;2.60;;;14.30;99.90;;;;;;4977421;28;20753;-71
2023/06/01 03:08:37;;;;;;;4.47;3.20;;;14.20;99.90;;;;;;4978439;28;20394;-71
2023/06/01 03:11:05;;;;;;;4.37;3.50;;;14.20;99.90;;;;;;4978423;28;20506;-70
2023/06/01 03:13:35;;;;;;;6.07;4.10;;;14.20;99.90;;;;;;4980268;28;20514;-71
2023/06/01 03:16:01;;;;;;;8.27;3.80;;;14.20;99.90;;;;;;4983418;28;20439;-71
2023/06/01 03:18:26;;;;;;;7.53;3.63;;;14.30;99.90;;;;;;4981287;28;20430;-71
2023/06/01 03:20:52;;;;;;;7.63;4.23;;;14.20;99.90;;;;;;4983499;28;20192;-71
2023/06/01 03:23:18;;;;;;;6.77;3.80;;;14.30;99.90;;;;;;4981791;28;20227;-71
2023/06/01 03:25:43;;;;;;;4.80;4.17;;;14.20;99.90;;;;;;4981552;28;20277;-70
2023/06/01 03:28:09;;;;;;;7.13;4.00;;;14.10;99.90;;;;;;4981298;28;20198;-71
2023/06/01 03:30:36;;;;;;;7.30;3.93;;;14.10;99.90;;;;;;4980786;28;20354;-73
2023/06/01 03:33:02;;;;;;;7.87;4.30;;;14.00;99.90;;;;;;4981041;28;20478;-70
2023/06/01 03:35:28;;;;;;;9.93;3.77;;;14.00;99.90;;;;;;4980582;28;20195;-71
2023/06/01 03:37:53;;;;;;;5.70;4.30;;;14.10;99.90;;;;;;4980701;28;20222;-71
2023/06/01 03:40:19;;;;;;;6.63;5.37;;;14.00;99.90;;;;;;4980814;28;20200;-71
2023/06/01 03:42:47;;;;;;;7.30;4.60;;;14.00;99.90;;;;;;4980878;28;20445;-70
2023/06/01 03:45:14;;;;;;;7.17;4.77;;;14.00;99.90;;;;;;4981490;28;20254;-71
2023/06/01 03:47:40;;;;;;;8.60;4.07;;;14.00;99.90;;;;;;4980364;28;20470;-69
2023/06/01 03:50:08;;;;;;;10.67;4.73;;;13.90;99.90;;;;;;4981138;28;20527;-71
2023/06/01 03:52:35;;;;;;;7.93;5.23;;;13.90;99.90;;;;;;4962404;28;20511;-70
2023/06/01 03:55:10;;;;;;;10.87;5.53;;;13.90;99.90;;;;;;4968061;28;20455;-71
2023/06/01 03:58:02;;;;;;;10.43;5.43;;;14.00;99.90;;;;;;4979815;28;20438;-70
2023/06/01 04:00:28;;;;;;;8.40;5.33;;;14.00;99.90;;;;;;4980541;28;20446;-72
2023/06/01 04:02:58;;;;;;;7.50;5.63;;;14.00;99.90;;;;;;4981875;28;20419;-70
2023/06/01 04:05:27;;;;;;;7.63;5.60;;;14.00;99.90;;;;;;4981209;28;20428;-70
2023/06/01 04:07:54;;;;;;;7.83;6.07;;;13.90;99.90;;;;;;4980935;28;20495;-69
2023/06/01 04:10:20;;;;;;;9.20;5.57;;;13.90;99.90;;;;;;4983441;28;20455;-73
2023/06/01 04:12:51;;;;;;;8.57;6.73;;;13.80;99.90;;;;;;4987054;28;20439;-71
2023/06/01 04:15:18;;;;;;;9.53;7.00;;;13.90;99.90;;;;;;4981436;28;20417;-72
2023/06/01 04:17:44;;;;;;;10.67;6.90;;;13.90;99.90;;;;;;4981702;28;20866;-71
2023/06/01 04:20:15;;;;;;;11.23;6.80;;;14.00;99.90;;;;;;4982110;28;20458;-71
2023/06/01 04:22:42;;;;;;;9.37;6.50;;;14.00;99.90;;;;;;4980162;28;20191;-70
2023/06/01 04:25:11;;;;;;;11.70;6.73;;;14.00;99.90;;;;;;4982097;28;20433;-72
2023/06/01 04:27:44;;;;;;;14.00;7.53;;;13.90;99.90;;;;;;4980564;28;20467;-71
2023/06/01 04:30:11;;;;;;;11.43;7.10;;;13.90;99.90;;;;;;4985321;28;20436;-71
2023/06/01 04:32:39;;;;;;;12.93;8.00;;;13.90;99.90;;;;;;4981178;28;20470;-73
2023/06/01 04:35:06;;;;;;;11.20;8.23;;;14.00;99.90;;;;;;4980483;28;20445;-70
2023/06/01 04:37:37;;;;;;;11.97;7.13;;;14.00;99.90;;;;;;4980638;28;20408;-71
2023/06/01 04:40:07;;;;;;;12.50;8.30;;;14.00;99.90;;;;;;4981108;28;20464;-71
2023/06/01 04:42:34;;;;;;;14.63;8.30;;;14.00;99.90;;;;;;4969446;28;20855;-71
2023/06/01 04:45:04;;;;;;;17.73;8.33;;;14.10;99.90;;;;;;4985197;28;20431;-72
2023/06/01 04:47:31;;;;;;;12.10;8.37;;;14.20;99.90;;;;;;4984938;28;20543;-72
2023/06/01 04:49:58;;;;;;;13.40;9.03;;;14.50;99.90;;;;;;4985337;28;20534;-71
2023/06/01 04:52:24;;;;;;;16.03;8.80;;;15.10;99.90;;;;;;4985397;28;20443;-70
2023/06/01 04:54:50;;;;;;;19.00;9.37;;;15.60;99.90;;;;;;4980390;28;20467;-72
2023/06/01 04:57:16;;;;;;;13.47;9.43;;;15.90;99.90;;;;;;4983509;28;20439;-71
2023/06/01 04:59:42;;;;;;;13.13;9.50;;;16.20;99.90;;;;;;4980388;28;20303;-71
2023/06/01 05:02:08;;;;;;;11.73;9.00;;;16.50;99.90;;;;;;4981329;28;20239;-71
2023/06/01 05:04:34;;;;;;;10.83;9.40;;;16.80;99.90;;;;;;4981779;28;20479;-72
2023/06/01 05:07:01;;;;;;;12.07;8.97;;;17.10;99.90;;;;;;4980239;28;20459;-69
2023/06/01 05:09:27;;;;;;;13.17;8.70;;;17.30;98.40;;;;;;4981395;28;20431;-71
2023/06/01 05:11:53;;;;;;;16.27;8.20;;;17.50;96.40;;;;;;4981548;28;20630;-73
2023/06/01 05:14:19;;;;;;;13.67;9.10;;;17.60;94.70;;;;;;4981008;28;20184;-72
2023/06/01 05:16:44;;;;;;;13.20;9.73;;;17.60;94.00;;;;;;4995226;28;20227;-72
2023/06/01 05:19:10;;;;;;;14.87;9.60;;;17.80;93.80;;;;;;4980943;28;20275;-72
2023/06/01 05:21:36;;;;;;;11.70;8.93;;;17.90;92.90;;;;;;4982123;28;20533;-72
2023/06/01 05:24:02;;;;;;;12.47;9.90;;;18.20;91.10;;;;;;4981754;28;20440;-75
2023/06/01 05:26:28;;;;;;;12.40;9.60;;;18.40;88.40;;;;;;4981608;28;20294;-72
2023/06/01 05:28:54;;;;;;;13.43;10.30;;;18.60;84.50;;;;;;4983462;28;20485;-75
2023/06/01 05:31:20;;;;;;;16.00;9.70;;;18.70;83.40;;;;;;4981224;28;20205;-74
2023/06/01 05:33:52;;;;;;;20.80;14.77;;;18.70;81.40;;;;;;4981770;28;20574;-73
2023/06/01 05:36:19;;;;;;;29.70;17.70;;;18.70;78.50;;;;;;4982833;28;20414;-73
2023/06/01 05:38:45;;;;;;;18.00;13.10;;;18.60;78.60;;;;;;4979435;28;20500;-73
2023/06/01 05:41:11;;;;;;;17.00;11.40;;;18.60;80.40;;;;;;4981418;28;20413;-71
2023/06/01 05:43:39;;;;;;;23.37;15.67;;;18.80;79.60;;;;;;4963392;28;20482;-75
2023/06/01 05:46:06;;;;;;;18.50;13.60;;;18.80;75.90;;;;;;4981610;28;20434;-74
2023/06/01 05:48:32;;;;;;;23.00;16.03;;;18.80;75.70;;;;;;4981632;28;20418;-74
2023/06/01 05:50:58;;;;;;;22.27;14.97;;;18.80;74.50;;;;;;4982256;28;20453;-73
2023/06/01 05:53:24;;;;;;;19.47;15.13;;;18.70;74.50;;;;;;4982706;28;20469;-72
2023/06/01 05:55:54;;;;;;;23.80;16.50;;;18.80;75.00;;;;;;4982945;28;20445;-72
2023/06/01 05:58:20;;;;;;;25.27;16.80;;;18.90;72.40;;;;;;4985317;28;20517;-73
2023/06/01 06:00:47;;;;;;;25.00;16.00;;;18.90;72.40;;;;;;4979731;28;20736;-73
2023/06/01 06:03:13;;;;;;;20.33;16.37;;;18.90;73.30;;;;;;4984102;28;20410;-74
2023/06/01 06:05:39;;;;;;;17.87;15.10;;;18.90;73.00;;;;;;4982741;28;20427;-75
2023/06/01 06:08:04;;;;;;;23.17;17.73;;;19.20;71.40;;;;;;4983710;28;20184;-72
2023/06/01 06:10:30;;;;;;;25.00;17.87;;;19.40;67.70;;;;;;4998895;28;20288;-73
2023/06/01 06:12:56;;;;;;;21.00;17.50;;;19.40;66.90;;;;;;4981563;28;20243;-77
2023/06/01 06:15:22;;;;;;;23.90;18.00;;;19.50;66.30;;;;;;4966697;28;20202;-74
2023/06/01 06:17:48;;;;;;;22.50;18.53;;;19.70;65.70;;;;;;4967302;28;20218;-73
2023/06/01 06:20:15;;;;;;;21.63;18.03;;;19.70;64.30;;;;;;4968166;28;20436;-72
2023/06/01 06:22:41;;;;;;;25.57;17.23;;;19.80;63.30;;;;;;4983597;28;20196;-74
2023/06/01 06:25:08;;;;;;;26.73;18.80;;;19.70;64.20;;;;;;4985068;28;20419;-76
2023/06/01 06:27:34;;;;;;;23.73;18.07;;;19.70;64.80;;;;;;4969675;28;20463;-76
2023/06/01 06:30:00;;;;;;;28.63;21.73;;;19.70;64.50;;;;;;4968593;28;20705;-74
2023/06/01 06:32:26;;;;;;;28.83;20.00;;;19.70;63.70;;;;;;4966538;28;20426;-74
2023/06/01 06:34:51;;;;;;;26.47;19.17;;;19.70;63.60;;;;;;4972489;28;20637;-72
2023/06/01 06:37:17;;;;;;;28.77;19.00;;;19.50;64.70;;;;;;4983023;28;20224;-75
2023/06/01 06:39:44;;;;;;;26.70;20.20;;;19.40;65.60;;;;;;4968531;28;20208;-73
2023/06/01 06:42:10;;;;;;;22.00;16.33;;;19.20;66.80;;;;;;4992123;28;20196;-74
2023/06/01 06:44:35;;;;;;;22.40;18.77;;;19.00;68.30;;;;;;4972408;28;20400;-76
2023/06/01 06:47:01;;;;;;;22.57;18.30;;;19.00;70.00;;;;;;4987557;28;20474;-72
2023/06/01 06:49:27;;;;;;;20.07;17.13;;;19.30;68.70;;;;;;4967308;29;20650;-73
2023/06/01 06:51:53;;;;;;;20.70;16.07;;;19.40;66.50;;;;;;4988506;28;20210;-75
2023/06/01 06:54:18;;;;;;;21.50;16.40;;;19.60;65.90;;;;;;4987008;28;20286;-72
2023/06/01 06:56:45;;;;;;;21.27;16.67;;;19.50;65.00;;;;;;4989072;28;20471;-76
2023/06/01 06:59:10;;;;;;;24.00;19.20;;;19.60;65.10;;;;;;4985396;28;20290;-74
2023/06/01 07:01:37;;;;;;;19.63;15.37;;;19.40;64.20;;;;;;4988462;28;20403;-75
2023/06/01 07:04:05;;;;;;;22.00;18.57;;;19.20;65.60;;;;;;4993385;28;20192;-75
2023/06/01 07:06:32;;;;;;;22.33;17.43;;;19.10;65.60;;;;;;4974215;29;20464;-73
2023/06/01 07:08:58;;;;;;;27.33;18.20;;;19.00;66.40;;;;;;4976715;28;20517;-74
2023/06/01 07:11:26;;;;;;;24.50;15.93;;;18.90;66.80;;;;;;4988972;28;20431;-73
2023/06/01 07:13:53;;;;;;;24.80;17.67;;;18.80;68.00;;;;;;4970633;28;20429;-71
2023/06/01 07:16:18;;;;;;;23.97;20.10;;;18.80;68.70;;;;;;4974234;28;20437;-73
2023/06/01 07:18:44;;;;;;;20.30;16.87;;;18.80;69.40;;;;;;4991697;28;20443;-72
2023/06/01 07:21:10;;;;;;;19.20;16.57;;;18.80;68.60;;;;;;4970080;28;20209;-75
2023/06/01 07:23:35;;;;;;;23.70;18.57;;;18.60;69.80;;;;;;4976242;28;20192;-73
2023/06/01 07:26:01;;;;;;;22.97;15.13;;;18.60;69.20;;;;;;4978907;28;20252;-76
2023/06/01 07:28:28;;;;;;;27.70;18.00;;;18.50;69.80;;;;;;4990209;28;20464;-75
2023/06/01 07:30:53;;;;;;;27.77;17.80;;;18.30;71.40;;;;;;4998167;28;20268;-74
2023/06/01 07:33:20;;;;;;;22.63;17.90;;;18.10;72.80;;;;;;4973241;28;20401;-76
2023/06/01 07:35:45;;;;;;;21.90;16.57;;;17.70;76.70;;;;;;4990402;28;20265;-76
2023/06/01 07:38:11;;;;;;;24.43;17.77;;;17.50;82.00;;;;;;4992267;28;20421;-76
2023/06/01 07:40:37;;;;;;;24.23;17.97;;;17.30;84.00;;;;;;4989897;28;20232;-77
2023/06/01 07:43:03;;;;;;;22.67;17.97;;;17.10;88.40;;;;;;4974990;28;20424;-75
2023/06/01 07:45:29;;;;;;;31.17;18.07;;;17.10;90.30;;;;;;4991851;28;20172;-78
2023/06/01 07:47:54;;;;;;;23.40;19.00;;;17.10;88.50;;;;;;4973247;28;20220;-74
2023/06/01 07:50:20;;;;;;;27.30;18.83;;;17.10;89.30;;;;;;4972200;28;20199;-75
2023/06/01 07:52:52;;;;;;;24.20;17.60;;;17.20;89.00;;;;;;4991919;28;20290;-74
2023/06/01 07:55:17;;;;;;;26.40;18.87;;;17.20;87.50;;;;;;4990865;28;20205;-76
2023/06/01 07:57:43;;;;;;;22.73;17.40;;;17.10;87.80;;;;;;4971811;28;20507;-75
2023/06/01 08:00:12;;;;;;;31.37;19.83;;;17.00;89.60;;;;;;4995935;28;20209;-74
2023/06/01 08:02:38;;;;;;;22.07;15.60;;;16.80;91.00;;;;;;4981468;28;20191;-76
2023/06/01 08:05:05;;;;;;;25.23;18.53;;;16.80;91.20;;;;;;4996235;28;20420;-75
2023/06/01 08:07:30;;;;;;;22.40;18.63;;;16.80;90.90;;;;;;4973099;28;20494;-76
2023/06/01 08:09:58;;;;;;;21.23;18.43;;;16.80;90.40;;;;;;4969113;28;20433;-74
2023/06/01 08:12:26;;;;;;;27.63;19.97;;;16.70;91.70;;;;;;4956430;28;20278;-73
2023/06/01 08:14:51;;;;;;;27.40;18.27;;;16.70;90.50;;;;;;4977228;28;20428;-76
2023/06/01 08:17:18;;;;;;;29.70;19.07;;;16.70;91.00;;;;;;4970112;28;20443;-75
2023/06/01 08:19:45;;;;;;;23.13;17.67;;;16.60;91.90;;;;;;4973987;28;20216;-76
2023/06/01 08:22:11;;;;;;;26.03;19.40;;;16.60;91.30;;;;;;4972685;28;20503;-74
2023/06/01 08:24:37;;;;;;;26.93;19.83;;;16.50;91.50;;;;;;4974205;28;20865;-75
2023/06/01 08:27:17;;;;;;;27.00;19.47;;;16.50;91.70;;;;;;4987205;28;20449;-76
2023/06/01 08:29:45;;;;;;;21.67;17.87;;;16.30;93.00;;;;;;4975343;28;20460;-74
2023/06/01 08:32:11;;;;;;;25.30;17.87;;;16.40;93.10;;;;;;4959791;28;20416;-76
2023/06/01 08:34:37;;;;;;;28.40;21.10;;;16.30;93.20;;;;;;4972180;28;20429;-75
2023/06/01 08:37:03;;;;;;;28.97;20.70;;;16.40;92.70;;;;;;4973830;28;20459;-76
2023/06/01 08:39:32;;;;;;;25.77;19.97;;;16.30;92.30;;;;;;4972137;28;20253;-75
2023/06/01 08:42:08;;;;;;;30.30;22.60;;;16.20;93.00;;;;;;4973075;28;20184;-75
2023/06/01 08:44:40;;;;;;;28.03;20.27;;;16.10;94.20;;;;;;4976728;28;20442;-76
2023/06/01 08:47:06;;;;;;;26.40;20.83;;;16.20;93.40;;;;;;4954726;29;20467;-75
2023/06/01 08:49:33;;;;;;;25.87;18.53;;;16.20;93.40;;;;;;4990421;28;20424;-75
2023/06/01 08:52:22;;;;;;;26.70;20.13;;;16.20;93.30;;;;;;4975594;28;20433;-75
2023/06/01 08:54:48;;;;;;;30.47;20.23;;;16.30;92.40;;;;;;4971577;29;20532;-77
2023/06/01 08:57:15;;;;;;;29.70;20.93;;;16.40;91.70;;;;;;4957215;29;20437;-75
2023/06/01 08:59:41;;;;;;;28.83;20.20;;;16.50;90.80;;;;;;4976025;28;20488;-76
2023/06/01 09:02:09;;;;;;;26.07;19.00;;;16.40;91.10;;;;;;4965097;29;20420;-77
2023/06/01 09:04:37;;;;;;;27.67;19.63;;;16.40;90.50;;;;;;4998360;28;20181;-75
2023/06/01 09:07:03;;;;;;;30.67;21.57;;;16.50;90.20;;;;;;4989499;28;20471;-76
2023/06/01 09:09:29;;;;;;;25.93;20.77;;;16.60;88.60;;;;;;4986710;28;20456;-76
2023/06/01 09:12:18;;;;;;;30.40;20.53;;;16.70;88.80;;;;;;4973035;28;20192;-74
2023/06/01 09:14:44;;;;;;;23.87;18.97;;;16.70;88.20;;;;;;4975474;28;20167;-77
2023/06/01 09:17:15;;;;;;;25.03;18.67;;;16.80;82.70;;;;;;4992546;28;20404;-77
2023/06/01 09:19:44;;;;;;;20.80;16.70;;;16.90;81.70;;;;;;4980471;28;20212;-74
2023/06/01 09:22:12;;;;;;;19.80;15.90;;;16.90;80.20;;;;;;4991673;28;20424;-75
2023/06/01 09:24:38;;;;;;;22.03;15.90;;;17.00;79.70;;;;;;4963887;28;20432;-78
2023/06/01 09:27:04;;;;;;;18.53;16.47;;;17.10;76.90;;;;;;4995204;28;20487;-77
2023/06/01 09:29:30;;;;;;;24.83;19.53;;;17.20;72.10;;;;;;4976337;28;20475;-76
2023/06/01 09:31:56;;;;;;;22.47;17.43;;;17.20;71.90;;;;;;4989611;28;20511;-73
2023/06/01 09:34:22;;;;;;;21.87;17.20;;;17.20;71.10;;;;;;4988355;28;20181;-76
2023/06/01 09:36:49;;;;;;;21.60;17.70;;;17.20;68.90;;;;;;4989349;28;20288;-77
2023/06/01 09:39:17;;;;;;;21.40;16.80;;;17.20;69.30;;;;;;4971347;28;20212;-74
2023/06/01 09:41:56;;;;;;;28.37;19.93;;;17.30;70.00;;;;;;4958678;29;20464;-74
2023/06/01 09:44:31;;;;;;;26.53;17.30;;;17.30;69.40;;;;;;4982871;28;20788;-76
2023/06/01 09:47:00;;;;;;;22.23;16.37;;;17.40;68.60;;;;;;4988956;28;20486;-78
2023/06/01 09:49:30;;;;;;;25.93;18.00;;;17.60;65.10;;;;;;4990355;28;20444;-77
2023/06/01 09:52:05;;;;;;;17.47;14.60;;;17.50;63.70;;;;;;4991380;28;20431;-76
2023/06/01 09:54:37;;;;;;;17.90;14.57;;;17.60;64.20;;;;;;4974534;28;20739;-78
2023/06/01 09:57:03;;;;;;;24.90;16.70;;;17.60;64.70;;;;;;4989997;28;20428;-74
2023/06/01 09:59:30;;;;;;;15.20;13.00;;;17.60;64.30;;;;;;4982771;28;20794;-76
2023/06/01 10:01:57;;;;;;;18.87;14.43;;;17.70;63.70;;;;;;4989755;28;20412;-76
2023/06/01 10:04:27;;;;;;;18.07;14.30;;;17.80;61.90;;;;;;4969934;29;20463;-76
2023/06/01 10:06:55;;;;;;;20.80;12.87;;;17.80;60.50;;;;;;4982920;28;20463;-76
2023/06/01 10:09:26;;;;;;;17.90;14.83;;;17.80;60.00;;;;;;4992352;28;20449;-74
2023/06/01 10:11:55;;;;;;;14.50;11.10;;;17.80;58.60;;;;;;4988986;28;20441;-74
2023/06/01 10:14:22;;;;;;;16.80;13.50;;;17.80;58.80;;;;;;4970948;29;20438;-77
2023/06/01 10:16:50;;;;;;;15.47;12.50;;;17.90;57.60;;;;;;4988827;28;20436;-75
2023/06/01 10:19:17;;;;;;;13.33;10.40;;;17.90;57.70;;;;;;4991831;28;20441;-76
2023/06/01 10:21:46;;;;;;;16.63;12.00;;;17.90;58.00;;;;;;4987950;28;20747;-76
2023/06/01 10:24:19;;;;;;;12.93;11.40;;;18.20;57.10;;;;;;4960536;28;20441;-76
2023/06/01 10:27:05;;;;;;;16.23;12.70;;;18.20;55.50;;;;;;4986721;28;20467;-75
2023/06/01 10:29:32;;;;;;;19.87;12.63;;;18.20;55.40;;;;;;4984403;28;20423;-76
2023/06/01 10:31:58;;;;;;;15.33;12.07;;;18.40;55.50;;;;;;4978749;28;20426;-75
2023/06/01 10:34:50;;;;;;;14.77;11.60;;;18.50;55.00;;;;;;4992894;28;20825;-75
2023/06/01 10:37:16;;;;;;;20.37;13.77;;;18.60;54.50;;;;;;4983083;28;20250;-74
2023/06/01 10:39:42;;;;;;;14.50;10.90;;;18.60;54.40;;;;;;4971852;28;20468;-76
2023/06/01 10:42:14;;;;;;;19.50;13.73;;;18.60;54.70;;;;;;4971240;28;20444;-76
2023/06/01 10:44:40;;;;;;;16.67;12.90;;;18.60;54.80;;;;;;4974071;28;20438;-75
2023/06/01 10:47:06;;;;;;;20.80;13.57;;;18.70;55.10;;;;;;4971463;28;20491;-76
2023/06/01 10:49:47;;;;;;;23.60;15.97;;;18.80;55.00;;;;;;4989150;28;20219;-75
2023/06/01 10:52:27;;;;;;;18.50;12.80;;;19.00;54.90;;;;;;4990001;28;20513;-75
2023/06/01 10:54:54;;;;;;;25.00;16.87;;;19.00;54.80;;;;;;4988534;28;20463;-78
2023/06/01 10:57:26;;;;;;;21.80;15.50;;;19.10;55.30;;;;;;4973726;28;20434;-76
2023/06/01 11:00:15;;;;;;;21.20;14.33;;;19.20;55.10;;;;;;4988748;28;20446;-75
2023/06/01 11:03:01;;;;;;;18.00;13.37;;;19.30;54.40;;;;;;4970653;28;20443;-77
2023/06/01 11:05:46;;;;;;;17.33;13.47;;;19.40;54.00;;;;;;4972284;28;20769;-77
2023/06/01 11:08:29;;;;;;;18.60;15.43;;;19.50;53.30;;;;;;4961062;28;20491;-77
2023/06/01 11:10:59;;;;;;;19.73;15.10;;;19.50;50.50;;;;;;4991459;28;20420;-76
2023/06/01 11:13:29;;;;;;;22.73;17.00;;;19.40;52.00;;;;;;4971932;28;20444;-77
2023/06/01 11:16:04;;;;;;;21.67;16.87;;;19.40;53.20;;;;;;4974236;28;20430;-78
2023/06/01 11:18:57;;;;;;;16.90;15.07;;;19.50;53.40;;;;;;4978509;28;20479;-78
2023/06/01 11:21:25;;;;;;;22.20;17.57;;;19.60;54.40;;;;;;4973896;28;20466;-77
2023/06/01 11:23:52;;;;;;;24.40;19.40;;;19.60;54.00;;;;;;4986293;28;20443;-78
2023/06/01 11:26:20;;;;;;;20.80;17.37;;;19.70;51.20;;;;;;4975716;28;20474;-77
2023/06/01 11:28:48;;;;;;;24.53;18.00;;;19.80;51.50;;;;;;4970981;29;20441;-77
2023/06/01 11:31:19;;;;;;;18.83;16.57;;;19.90;51.60;;;;;;4956407;29;20409;-79
2023/06/01 11:33:53;;;;;;;22.50;17.60;;;20.00;52.20;;;;;;4978254;28;20840;-78
2023/06/01 11:36:26;;;;;;;21.60;18.20;;;20.00;52.00;;;;;;4962142;29;20385;-77
2023/06/01 11:38:55;;;;;;;22.33;15.57;;;19.90;51.50;;;;;;4974286;29;20429;-76
2023/06/01 11:41:23;;;;;;;25.33;18.07;;;20.00;51.20;;;;;;4968576;28;20450;-76
2023/06/01 11:43:56;;;;;;;28.10;24.40;;;20.00;51.50;;;;;;4969096;29;20437;-78
2023/06/01 11:46:22;;;;;;;23.43;18.77;;;20.20;51.60;;;;;;4979678;28;20540;-79
2023/06/01 11:49:05;;;;;;;28.23;21.43;;;20.20;51.00;;;;;;5001547;28;20439;-78
2023/06/01 11:51:42;;;;;;;30.70;21.90;;;20.20;50.10;;;;;;5011378;28;20419;-77
2023/06/01 11:54:08;;;;;;;28.40;20.50;;;20.20;50.30;;;;;;4995725;28;20462;-78
2023/06/01 11:56:39;;;;;;;23.77;19.10;;;20.20;50.50;;;;;;4975405;28;20431;-76
2023/06/01 11:59:08;;;;;;;22.30;18.70;;;20.30;49.70;;;;;;4978143;28;20529;-76
2023/06/01 12:01:42;;;;;;;24.20;18.97;;;20.50;49.00;;;;;;4977821;28;20458;-78
2023/06/01 12:04:13;;;;;;;23.27;18.77;;;20.40;47.70;;;;;;4993436;28;20478;-78
2023/06/01 12:06:39;;;;;;;21.93;19.00;;;20.40;48.30;;;;;;4974941;29;20460;-78
2023/06/01 12:09:06;;;;;;;24.37;20.23;;;20.30;48.70;;;;;;4976565;28;20443;-78
2023/06/01 12:11:33;;;;;;;20.33;14.97;;;20.40;49.40;;;;;;4977688;28;20487;-76
2023/06/01 12:13:59;;;;;;;24.70;18.10;;;20.50;49.00;;;;;;4975903;28;20449;-76
2023/06/01 12:16:51;;;;;;;16.67;14.80;;;20.60;48.90;;;;;;4993184;28;20491;-76
2023/06/01 12:19:17;;;;;;;24.40;16.70;;;20.60;48.90;;;;;;4975859;28;20471;-77
2023/06/01 12:21:50;;;;;;;22.10;16.40;;;20.70;48.90;;;;;;4991124;28;20423;-75
2023/06/01 12:24:33;;;;;;;25.30;18.00;;;20.80;48.70;;;;;;4992186;28;20188;-77
2023/06/01 12:27:00;;;;;;;24.27;17.60;;;20.70;47.00;;;;;;4958880;28;20559;-76
2023/06/01 12:29:43;;;;;;;21.90;17.07;;;20.70;47.50;;;;;;4984602;28;20439;-76
2023/06/01 12:32:11;;;;;;;19.03;14.67;;;20.70;46.20;;;;;;4976009;28;20954;-77
2023/06/01 12:34:39;;;;;;;26.10;17.37;;;20.70;46.40;;;;;;4993744;28;20479;-77
2023/06/01 12:37:23;;;;;;;23.33;18.50;;;20.80;46.00;;;;;;4973571;29;20422;-77
2023/06/01 12:39:56;;;;;;;20.40;17.00;;;20.80;46.00;;;;;;4989871;28;20445;-77
2023/06/01 12:42:38;;;;;;;25.90;18.70;;;20.60;46.40;;;;;;4985506;28;20440;-78